Time,TemperatureF,DewpointF,PressureIn,WindDirection,WindDirectionDegrees,WindSpeedMPH,WindSpeedGustMPH,Humidity,HourlyPrecipIn,Conditions,Clouds,dailyrainin,SoftwareType,DateUTC
2013-12-25 00:00:00,37.8,31.6,30.22,ENE,68,0.0,0.2,78,0.00,,,0.00,WUHU216HW,2013-12-25 08:00:00,
2013-12-25 00:05:00,37.8,31.6,30.22,ENE,68,0.2,0.2,78,0.00,,,0.00,WUHU216HW,2013-12-25 08:05:00,
2013-12-25 00:10:00,37.6,31.4,30.22,East,90,0.0,0.2,78,0.00,,,0.00,WUHU216HW,2013-12-25 08:10:00,
2013-12-25 00:15:00,37.4,31.2,30.22,East,90,0.0,0.9,78,0.00,,,0.00,WUHU216HW,2013-12-25 08:15:00,
2013-12-25 00:20:00,37.4,31.2,30.21,ENE,68,0.0,0.9,78,0.00,,,0.00,WUHU216HW,2013-12-25 08:20:00,
2013-12-25 00:25:00,37.4,31.5,30.21,NNW,338,0.0,0.2,79,0.00,,,0.00,WUHU216HW,2013-12-25 08:25:00,
2013-12-25 00:30:00,37.3,31.1,30.22,WNW,293,0.0,0.0,78,0.00,,,0.00,WUHU216HW,2013-12-25 08:30:00,
2013-12-25 00:35:00,37.3,31.1,30.22,WNW,293,0.0,0.0,78,0.00,,,0.00,WUHU216HW,2013-12-25 08:35:00,
2013-12-25 00:40:00,37.1,31.1,30.22,NE,45,0.2,0.4,79,0.00,,,0.00,WUHU216HW,2013-12-25 08:40:00,
2013-12-25 00:45:00,37.1,31.1,30.22,NE,45,0.0,0.4,79,0.00,,,0.00,WUHU216HW,2013-12-25 08:45:00,
2013-12-25 00:50:00,36.9,31.0,30.22,ENE,68,0.0,0.4,79,0.00,,,0.00,WUHU216HW,2013-12-25 08:50:00,
2013-12-25 00:55:00,36.7,30.8,30.22,NE,45,0.0,0.4,79,0.00,,,0.00,WUHU216HW,2013-12-25 08:55:00,
2013-12-25 01:00:00,36.7,30.8,30.22,NNE,23,0.0,0.0,79,0.00,,,0.00,WUHU216HW,2013-12-25 09:00:00,
2013-12-25 01:05:00,36.5,30.6,30.21,NNE,23,0.0,0.0,79,0.00,,,0.00,WUHU216HW,2013-12-25 09:05:00,
2013-12-25 01:10:00,36.4,30.4,30.22,NNE,23,0.0,0.0,79,0.00,,,0.00,WUHU216HW,2013-12-25 09:10:00,
2013-12-25 01:15:00,36.4,30.8,30.22,WNW,293,0.0,0.2,80,0.00,,,0.00,WUHU216HW,2013-12-25 09:15:00,
2013-12-25 01:20:00,36.4,30.8,30.22,North,0,0.2,0.2,80,0.00,,,0.00,WUHU216HW,2013-12-25 09:20:00,
2013-12-25 01:25:00,36.2,30.6,30.22,NE,45,0.0,0.4,80,0.00,,,0.00,WUHU216HW,2013-12-25 09:25:00,
2013-12-25 01:30:00,36.2,30.6,30.22,NW,315,0.0,0.4,80,0.00,,,0.00,WUHU216HW,2013-12-25 09:30:00,
2013-12-25 01:35:00,36.0,30.4,30.21,West,270,0.4,0.4,80,0.00,,,0.00,WUHU216HW,2013-12-25 09:35:00,
2013-12-25 01:40:00,36.0,30.4,30.22,ENE,68,0.0,0.4,80,0.00,,,0.00,WUHU216HW,2013-12-25 09:40:00,
2013-12-25 01:45:00,36.0,30.4,30.22,ENE,68,0.0,0.4,80,0.00,,,0.00,WUHU216HW,2013-12-25 09:45:00,
2013-12-25 01:50:00,35.8,30.5,30.22,NNE,23,0.0,2.5,81,0.00,,,0.00,WUHU216HW,2013-12-25 09:50:00,
2013-12-25 01:55:00,35.6,30.3,30.22,ENE,68,0.0,2.5,81,0.00,,,0.00,WUHU216HW,2013-12-25 09:55:00,
2013-12-25 02:00:00,35.6,30.6,30.22,NNE,23,0.0,1.3,82,0.00,,,0.00,WUHU216HW,2013-12-25 10:00:00,
2013-12-25 02:05:00,35.6,30.6,30.22,West,270,0.2,0.4,82,0.00,,,0.00,WUHU216HW,2013-12-25 10:05:00,
2013-12-25 02:10:00,35.6,30.6,30.22,SW,225,0.0,0.2,82,0.00,,,0.00,WUHU216HW,2013-12-25 10:10:00,
2013-12-25 02:15:00,35.6,30.6,30.22,ESE,113,0.0,0.0,82,0.00,,,0.00,WUHU216HW,2013-12-25 10:15:00,
2013-12-25 02:20:00,35.6,30.6,30.22,North,0,0.0,0.2,82,0.00,,,0.00,WUHU216HW,2013-12-25 10:20:00,
2013-12-25 02:25:00,35.5,30.4,30.22,ESE,113,0.0,0.4,82,0.00,,,0.00,WUHU216HW,2013-12-25 10:25:00,
2013-12-25 02:30:00,35.3,30.2,30.22,ESE,113,0.0,0.4,82,0.00,,,0.00,WUHU216HW,2013-12-25 10:30:00,
2013-12-25 02:35:00,35.3,30.2,30.22,ENE,68,0.0,0.4,82,0.00,,,0.00,WUHU216HW,2013-12-25 10:35:00,
2013-12-25 02:40:00,35.3,30.2,30.22,WNW,293,0.0,0.4,82,0.00,,,0.00,WUHU216HW,2013-12-25 10:40:00,
2013-12-25 02:45:00,35.1,30.1,30.22,North,0,0.0,0.0,82,0.00,,,0.00,WUHU216HW,2013-12-25 10:45:00,
2013-12-25 02:50:00,34.9,29.9,30.22,NNW,338,0.0,0.0,82,0.00,,,0.00,WUHU216HW,2013-12-25 10:50:00,
2013-12-25 02:55:00,34.9,29.9,30.22,North,0,0.0,0.0,82,0.00,,,0.00,WUHU216HW,2013-12-25 10:55:00,
2013-12-25 03:00:00,34.9,29.9,30.22,North,0,0.0,0.0,82,0.00,,,0.00,WUHU216HW,2013-12-25 11:00:00,
2013-12-25 03:05:00,34.7,29.7,30.22,WNW,293,0.0,0.0,82,0.00,,,0.00,WUHU216HW,2013-12-25 11:05:00,
2013-12-25 03:10:00,34.6,29.5,30.22,WNW,293,0.0,0.0,82,0.00,,,0.00,WUHU216HW,2013-12-25 11:10:00,
2013-12-25 03:15:00,34.6,29.5,30.22,NNE,23,0.0,0.0,82,0.00,,,0.00,WUHU216HW,2013-12-25 11:15:00,
2013-12-25 03:20:00,34.4,29.3,30.22,NNE,23,0.0,0.0,82,0.00,,,0.00,WUHU216HW,2013-12-25 11:20:00,
2013-12-25 03:25:00,34.2,29.2,30.22,NNE,23,0.0,0.0,82,0.00,,,0.00,WUHU216HW,2013-12-25 11:25:00,
2013-12-25 03:30:00,34.2,29.2,30.22,NNE,23,0.0,0.0,82,0.00,,,0.00,WUHU216HW,2013-12-25 11:30:00,
2013-12-25 03:35:00,34.2,29.5,30.22,WNW,293,0.0,0.2,83,0.00,,,0.00,WUHU216HW,2013-12-25 11:35:00,
2013-12-25 03:40:00,34.2,29.5,30.21,ENE,68,0.2,0.9,83,0.00,,,0.00,WUHU216HW,2013-12-25 11:40:00,
2013-12-25 03:45:00,34.2,29.8,30.21,ENE,68,0.0,0.9,84,0.00,,,0.00,WUHU216HW,2013-12-25 11:45:00,
2013-12-25 03:50:00,34.2,29.8,30.21,ENE,68,0.2,0.2,84,0.00,,,0.00,WUHU216HW,2013-12-25 11:50:00,
2013-12-25 03:55:00,34.0,29.6,30.21,East,90,0.7,0.9,84,0.00,,,0.00,WUHU216HW,2013-12-25 11:55:00,
2013-12-25 04:00:00,34.0,29.6,30.21,NE,45,0.0,0.9,84,0.00,,,0.00,WUHU216HW,2013-12-25 12:00:00,
2013-12-25 04:05:00,34.0,29.6,30.21,NE,45,0.0,0.2,84,0.00,,,0.00,WUHU216HW,2013-12-25 12:05:00,
2013-12-25 04:10:00,34.0,29.6,30.21,ENE,68,0.0,0.4,84,0.00,,,0.00,WUHU216HW,2013-12-25 12:10:00,
2013-12-25 04:15:00,34.0,29.6,30.21,ENE,68,0.0,0.4,84,0.00,,,0.00,WUHU216HW,2013-12-25 12:15:00,
2013-12-25 04:20:00,34.0,29.6,30.21,ENE,68,0.0,0.2,84,0.00,,,0.00,WUHU216HW,2013-12-25 12:20:00,
2013-12-25 04:25:00,34.0,29.6,30.21,West,270,0.4,0.4,84,0.00,,,0.00,WUHU216HW,2013-12-25 12:25:00,
2013-12-25 04:30:00,34.2,30.1,30.21,NE,45,0.0,0.4,85,0.00,,,0.00,WUHU216HW,2013-12-25 12:30:00,
2013-12-25 04:35:00,34.0,29.9,30.21,ENE,68,0.0,0.4,85,0.00,,,0.00,WUHU216HW,2013-12-25 12:35:00,
2013-12-25 04:40:00,34.0,29.9,30.21,NE,45,0.0,0.4,85,0.00,,,0.00,WUHU216HW,2013-12-25 12:40:00,
2013-12-25 04:45:00,34.0,29.9,30.21,NE,45,0.2,0.4,85,0.00,,,0.00,WUHU216HW,2013-12-25 12:45:00,
2013-12-25 04:50:00,33.8,29.4,30.21,North,0,0.0,0.2,84,0.00,,,0.00,WUHU216HW,2013-12-25 12:50:00,
2013-12-25 04:55:00,33.8,29.4,30.21,NNE,23,0.0,0.2,84,0.00,,,0.00,WUHU216HW,2013-12-25 12:55:00,
2013-12-25 05:00:00,33.8,29.4,30.21,North,0,0.0,0.2,84,0.00,,,0.00,WUHU216HW,2013-12-25 13:00:00,
2013-12-25 05:05:00,33.7,29.3,30.21,North,0,0.0,0.0,84,0.00,,,0.00,WUHU216HW,2013-12-25 13:05:00,
2013-12-25 05:10:00,33.7,29.3,30.21,North,0,0.0,0.2,84,0.00,,,0.00,WUHU216HW,2013-12-25 13:10:00,
2013-12-25 05:15:00,33.5,29.1,30.21,WNW,293,0.0,0.2,84,0.00,,,0.00,WUHU216HW,2013-12-25 13:15:00,
2013-12-25 05:20:00,33.5,29.1,30.21,NNE,23,0.2,0.4,84,0.00,,,0.00,WUHU216HW,2013-12-25 13:20:00,
2013-12-25 05:25:00,33.5,29.1,30.20,NW,315,0.0,0.4,84,0.00,,,0.00,WUHU216HW,2013-12-25 13:25:00,
2013-12-25 05:30:00,33.5,29.1,30.21,NNW,338,0.0,0.0,84,0.00,,,0.00,WUHU216HW,2013-12-25 13:30:00,
2013-12-25 05:35:00,33.5,29.1,30.21,NE,45,0.2,0.2,84,0.00,,,0.00,WUHU216HW,2013-12-25 13:35:00,
2013-12-25 05:40:00,33.5,29.3,30.21,NE,45,0.0,0.4,85,0.00,,,0.00,WUHU216HW,2013-12-25 13:40:00,
2013-12-25 05:45:00,33.5,29.3,30.21,NNE,23,0.2,0.4,85,0.00,,,0.00,WUHU216HW,2013-12-25 13:45:00,
2013-12-25 05:50:00,33.5,29.3,30.21,North,0,0.0,0.4,85,0.00,,,0.00,WUHU216HW,2013-12-25 13:50:00,
2013-12-25 05:55:00,33.5,29.3,30.21,North,0,0.0,0.4,85,0.00,,,0.00,WUHU216HW,2013-12-25 13:55:00,
2013-12-25 06:00:00,33.5,29.3,30.21,NNE,23,0.0,0.2,85,0.00,,,0.00,WUHU216HW,2013-12-25 14:00:00,
2013-12-25 06:05:00,33.5,29.3,30.21,North,0,0.2,0.2,85,0.00,,,0.00,WUHU216HW,2013-12-25 14:05:00,
2013-12-25 06:10:00,33.5,29.3,30.21,NW,315,0.0,0.2,85,0.00,,,0.00,WUHU216HW,2013-12-25 14:10:00,
2013-12-25 06:15:00,33.5,29.3,30.21,North,0,0.2,0.2,85,0.00,,,0.00,WUHU216HW,2013-12-25 14:15:00,
2013-12-25 06:20:00,33.5,29.3,30.21,North,0,0.0,0.2,85,0.00,,,0.00,WUHU216HW,2013-12-25 14:20:00,
2013-12-25 06:25:00,33.7,29.8,30.21,NE,45,0.4,0.4,86,0.00,,,0.00,WUHU216HW,2013-12-25 14:25:00,
2013-12-25 06:30:00,33.8,30.0,30.21,North,0,0.0,0.4,86,0.00,,,0.00,WUHU216HW,2013-12-25 14:30:00,
2013-12-25 06:35:00,33.8,30.0,30.21,WNW,293,0.0,0.2,86,0.00,,,0.00,WUHU216HW,2013-12-25 14:35:00,
2013-12-25 06:40:00,33.8,30.0,30.21,WNW,293,0.0,0.0,86,0.00,,,0.00,WUHU216HW,2013-12-25 14:40:00,
2013-12-25 06:45:00,34.0,30.2,30.22,WNW,293,0.0,0.0,86,0.00,,,0.00,WUHU216HW,2013-12-25 14:45:00,
2013-12-25 06:50:00,33.8,30.0,30.22,NNW,338,0.0,0.0,86,0.00,,,0.00,WUHU216HW,2013-12-25 14:50:00,
2013-12-25 06:55:00,33.8,30.0,30.22,North,0,0.0,0.2,86,0.00,,,0.00,WUHU216HW,2013-12-25 14:55:00,
2013-12-25 07:00:00,33.8,30.0,30.22,North,0,0.0,0.2,86,0.00,,,0.00,WUHU216HW,2013-12-25 15:00:00,
2013-12-25 07:05:00,33.7,29.8,30.22,North,0,0.0,0.2,86,0.00,,,0.00,WUHU216HW,2013-12-25 15:05:00,
2013-12-25 07:10:00,33.5,29.7,30.22,North,0,0.0,0.0,86,0.00,,,0.00,WUHU216HW,2013-12-25 15:10:00,
2013-12-25 07:15:00,33.5,29.7,30.23,NNE,23,0.0,0.2,86,0.00,,,0.00,WUHU216HW,2013-12-25 15:15:00,
2013-12-25 07:20:00,33.5,29.7,30.23,NNE,23,0.0,0.2,86,0.00,,,0.00,WUHU216HW,2013-12-25 15:20:00,
2013-12-25 07:25:00,33.5,29.7,30.23,NNE,23,0.0,0.0,86,0.00,,,0.00,WUHU216HW,2013-12-25 15:25:00,
2013-12-25 07:30:00,33.5,29.7,30.23,NNE,23,0.0,0.0,86,0.00,,,0.00,WUHU216HW,2013-12-25 15:30:00,
2013-12-25 07:35:00,33.5,29.7,30.23,NNE,23,0.0,0.0,86,0.00,,,0.00,WUHU216HW,2013-12-25 15:35:00,
2013-12-25 07:40:00,33.7,29.8,30.23,SSE,158,0.0,0.0,86,0.00,,,0.00,WUHU216HW,2013-12-25 15:40:00,
2013-12-25 07:45:00,33.7,29.8,30.23,SE,135,0.0,0.0,86,0.00,,,0.00,WUHU216HW,2013-12-25 15:45:00,
2013-12-25 07:50:00,33.7,29.8,30.23,NNE,23,0.0,0.0,86,0.00,,,0.00,WUHU216HW,2013-12-25 15:50:00,
2013-12-25 07:55:00,33.7,29.8,30.23,NNE,23,0.0,0.0,86,0.00,,,0.00,WUHU216HW,2013-12-25 15:55:00,
2013-12-25 08:00:00,33.8,30.0,30.23,WNW,293,0.0,0.4,86,0.00,,,0.00,WUHU216HW,2013-12-25 16:00:00,
2013-12-25 08:05:00,33.8,30.2,30.24,NNW,338,0.0,0.4,87,0.00,,,0.00,WUHU216HW,2013-12-25 16:05:00,
2013-12-25 08:10:00,34.0,30.4,30.24,NW,315,0.0,0.0,87,0.00,,,0.00,WUHU216HW,2013-12-25 16:10:00,
2013-12-25 08:15:00,34.2,30.6,30.24,WNW,293,0.0,0.0,87,0.00,,,0.00,WUHU216HW,2013-12-25 16:15:00,
2013-12-25 08:20:00,34.6,31.3,30.24,WNW,293,0.0,0.0,88,0.00,,,0.00,WUHU216HW,2013-12-25 16:20:00,
2013-12-25 08:25:00,34.7,31.5,30.24,WNW,293,0.0,0.0,88,0.00,,,0.00,WUHU216HW,2013-12-25 16:25:00,
2013-12-25 08:30:00,35.1,31.9,30.25,WNW,293,0.0,0.0,88,0.00,,,0.00,WUHU216HW,2013-12-25 16:30:00,
2013-12-25 08:35:00,35.5,32.5,30.25,North,0,0.0,0.0,89,0.00,,,0.00,WUHU216HW,2013-12-25 16:35:00,
2013-12-25 08:40:00,36.0,33.0,30.25,WSW,248,0.7,1.1,89,0.00,,,0.00,WUHU216HW,2013-12-25 16:40:00,
2013-12-25 08:45:00,36.7,33.8,30.25,WNW,293,0.4,1.1,89,0.00,,,0.00,WUHU216HW,2013-12-25 16:45:00,
2013-12-25 08:50:00,37.8,35.1,30.25,West,270,0.2,2.0,90,0.00,,,0.00,WUHU216HW,2013-12-25 16:50:00,
2013-12-25 08:55:00,38.5,35.8,30.25,WNW,293,2.5,2.5,90,0.00,,,0.00,WUHU216HW,2013-12-25 16:55:00,
2013-12-25 09:00:00,39.2,36.8,30.26,WNW,293,0.0,2.5,91,0.00,,,0.00,WUHU216HW,2013-12-25 17:00:00,
2013-12-25 09:05:00,39.8,37.1,30.26,West,270,1.1,2.5,90,0.00,,,0.00,WUHU216HW,2013-12-25 17:05:00,
2013-12-25 09:10:00,40.1,37.4,30.26,WNW,293,1.8,1.8,90,0.00,,,0.00,WUHU216HW,2013-12-25 17:10:00,
2013-12-25 09:15:00,40.9,38.2,30.26,North,0,1.6,2.2,90,0.00,,,0.00,WUHU216HW,2013-12-25 17:15:00,
2013-12-25 09:20:00,41.4,38.7,30.26,West,270,3.4,3.4,90,0.00,,,0.00,WUHU216HW,2013-12-25 17:20:00,
2013-12-25 09:25:00,42.1,39.2,30.26,SW,225,1.1,4.0,89,0.00,,,0.00,WUHU216HW,2013-12-25 17:25:00,
2013-12-25 09:30:00,42.8,39.9,30.26,NW,315,2.2,4.0,89,0.00,,,0.00,WUHU216HW,2013-12-25 17:30:00,
2013-12-25 09:35:00,43.6,40.2,30.26,WNW,293,2.2,4.5,88,0.00,,,0.00,WUHU216HW,2013-12-25 17:35:00,
2013-12-25 09:40:00,44.1,40.5,30.26,WNW,293,1.1,4.5,87,0.00,,,0.00,WUHU216HW,2013-12-25 17:40:00,
2013-12-25 09:45:00,44.6,40.7,30.26,WSW,248,0.9,2.7,86,0.00,,,0.00,WUHU216HW,2013-12-25 17:45:00,
2013-12-25 09:50:00,45.0,40.8,30.26,West,270,1.8,2.0,85,0.00,,,0.00,WUHU216HW,2013-12-25 17:50:00,
2013-12-25 09:55:00,45.5,41.3,30.26,WNW,293,1.3,2.0,85,0.00,,,0.00,WUHU216HW,2013-12-25 17:55:00,
2013-12-25 10:00:00,46.1,41.2,30.26,West,270,2.9,3.4,83,0.00,,,0.00,WUHU216HW,2013-12-25 18:00:00,
2013-12-25 10:05:00,46.8,41.3,30.27,West,270,2.5,3.6,81,0.00,,,0.00,WUHU216HW,2013-12-25 18:05:00,
2013-12-25 10:10:00,47.7,41.9,30.27,NW,315,2.0,3.6,80,0.00,,,0.00,WUHU216HW,2013-12-25 18:10:00,
2013-12-25 10:15:00,48.1,41.8,30.26,WNW,293,0.9,3.6,79,0.00,,,0.00,WUHU216HW,2013-12-25 18:15:00,
2013-12-25 10:20:00,48.6,41.9,30.26,WNW,293,1.8,3.6,78,0.00,,,0.00,WUHU216HW,2013-12-25 18:20:00,
2013-12-25 10:25:00,49.0,42.0,30.26,WNW,293,2.7,3.4,77,0.00,,,0.00,WUHU216HW,2013-12-25 18:25:00,
2013-12-25 10:30:00,49.3,42.0,30.26,West,270,0.9,2.7,76,0.00,,,0.00,WUHU216HW,2013-12-25 18:30:00,
2013-12-25 10:35:00,49.9,42.2,30.26,WSW,248,2.0,2.9,75,0.00,,,0.00,WUHU216HW,2013-12-25 18:35:00,
2013-12-25 10:40:00,50.4,42.8,30.26,West,270,1.8,2.9,75,0.00,,,0.00,WUHU216HW,2013-12-25 18:40:00,
2013-12-25 10:45:00,50.8,42.4,30.26,West,270,2.9,2.9,73,0.00,,,0.00,WUHU216HW,2013-12-25 18:45:00,
2013-12-25 10:50:00,51.3,42.9,30.26,WNW,293,1.6,3.4,73,0.00,,,0.00,WUHU216HW,2013-12-25 18:50:00,
2013-12-25 10:55:00,51.8,43.2,30.26,West,270,1.8,3.4,72,0.00,,,0.00,WUHU216HW,2013-12-25 18:55:00,
2013-12-25 11:00:00,52.6,43.5,30.26,WSW,248,2.7,3.4,71,0.00,,,0.00,WUHU216HW,2013-12-25 19:00:00,
2013-12-25 11:05:00,52.9,43.0,30.26,WNW,293,1.6,4.7,69,0.00,,,0.00,WUHU216HW,2013-12-25 19:05:00,
2013-12-25 11:10:00,53.3,43.0,30.26,West,270,1.3,4.7,68,0.00,,,0.00,WUHU216HW,2013-12-25 19:10:00,
2013-12-25 11:15:00,53.8,43.1,30.26,WNW,293,0.4,3.8,67,0.00,,,0.00,WUHU216HW,2013-12-25 19:15:00,
2013-12-25 11:20:00,54.2,43.5,30.25,West,270,0.7,3.8,67,0.00,,,0.00,WUHU216HW,2013-12-25 19:20:00,
2013-12-25 11:25:00,54.5,43.4,30.25,West,270,1.8,4.0,66,0.00,,,0.00,WUHU216HW,2013-12-25 19:25:00,
2013-12-25 11:30:00,55.1,43.5,30.25,NW,315,1.6,4.0,65,0.00,,,0.00,WUHU216HW,2013-12-25 19:30:00,
2013-12-25 11:35:00,55.3,43.3,30.25,WNW,293,1.8,3.1,64,0.00,,,0.00,WUHU216HW,2013-12-25 19:35:00,
2013-12-25 11:40:00,55.4,43.4,30.24,West,270,2.5,2.5,64,0.00,,,0.00,WUHU216HW,2013-12-25 19:40:00,
2013-12-25 11:44:00,55.6,43.6,30.24,West,270,2.0,3.8,64,0.00,,,0.00,WUHU216HW,2013-12-25 19:44:00,
2013-12-25 11:49:00,55.8,43.4,30.24,NNW,338,1.1,3.8,63,0.00,,,0.00,WUHU216HW,2013-12-25 19:49:00,
2013-12-25 11:54:00,56.3,43.5,30.24,NW,315,1.1,3.1,62,0.00,,,0.00,WUHU216HW,2013-12-25 19:54:00,
2013-12-25 11:59:00,56.5,43.7,30.23,NW,315,0.9,3.1,62,0.00,,,0.00,WUHU216HW,2013-12-25 19:59:00,
2013-12-25 12:04:00,56.9,43.6,30.23,WSW,248,2.0,3.4,61,0.00,,,0.00,WUHU216HW,2013-12-25 20:04:00,
2013-12-25 12:09:00,57.2,43.6,30.23,WNW,293,3.1,3.4,60,0.00,,,0.00,WUHU216HW,2013-12-25 20:09:00,
2013-12-25 12:14:00,57.6,43.4,30.23,WNW,293,4.7,4.7,59,0.00,,,0.00,WUHU216HW,2013-12-25 20:14:00,
2013-12-25 12:19:00,58.0,43.3,30.22,West,270,0.4,4.7,58,0.00,,,0.00,WUHU216HW,2013-12-25 20:19:00,
2013-12-25 12:24:00,58.3,43.6,30.22,WNW,293,1.8,3.6,58,0.00,,,0.00,WUHU216HW,2013-12-25 20:24:00,
2013-12-25 12:29:00,58.7,43.9,30.21,WNW,293,4.7,4.7,58,0.00,,,0.00,WUHU216HW,2013-12-25 20:29:00,
2013-12-25 12:34:00,58.9,44.1,30.21,WNW,293,4.7,4.7,58,0.00,,,0.00,WUHU216HW,2013-12-25 20:34:00,
2013-12-25 12:39:00,59.2,44.5,30.21,WNW,293,3.6,4.7,58,0.00,,,0.00,WUHU216HW,2013-12-25 20:39:00,
2013-12-25 12:44:00,59.4,44.7,30.21,WNW,293,1.1,3.6,58,0.00,,,0.00,WUHU216HW,2013-12-25 20:44:00,
2013-12-25 12:49:00,59.8,44.9,30.21,WNW,293,3.4,3.4,58,0.00,,,0.00,WUHU216HW,2013-12-25 20:49:00,
2013-12-25 12:54:00,60.1,44.8,30.20,NW,315,2.0,4.7,57,0.00,,,0.00,WUHU216HW,2013-12-25 20:54:00,
2013-12-25 12:59:00,60.5,45.2,30.20,WNW,293,3.8,4.7,57,0.00,,,0.00,WUHU216HW,2013-12-25 20:59:00,
2013-12-25 13:04:00,60.7,44.8,30.20,West,270,2.5,3.8,56,0.00,,,0.00,WUHU216HW,2013-12-25 21:04:00,
2013-12-25 13:09:00,61.0,44.7,30.20,WNW,293,0.7,2.7,55,0.00,,,0.00,WUHU216HW,2013-12-25 21:09:00,
2013-12-25 13:14:00,61.2,44.9,30.19,SW,225,0.9,3.6,55,0.00,,,0.00,WUHU216HW,2013-12-25 21:14:00,
2013-12-25 13:19:00,61.6,44.7,30.19,WNW,293,3.1,5.8,54,0.00,,,0.00,WUHU216HW,2013-12-25 21:19:00,
2013-12-25 13:24:00,61.7,44.9,30.18,WSW,248,3.1,5.8,54,0.00,,,0.00,WUHU216HW,2013-12-25 21:24:00,
2013-12-25 13:29:00,62.1,44.7,30.18,WSW,248,2.9,4.7,53,0.00,,,0.00,WUHU216HW,2013-12-25 21:29:00,
2013-12-25 13:34:00,62.3,44.9,30.18,West,270,2.0,4.5,53,0.00,,,0.00,WUHU216HW,2013-12-25 21:34:00,
2013-12-25 13:39:00,62.8,44.9,30.17,West,270,3.4,4.3,52,0.00,,,0.00,WUHU216HW,2013-12-25 21:39:00,
2013-12-25 13:44:00,63.2,45.2,30.17,West,270,1.3,3.6,52,0.00,,,0.00,WUHU216HW,2013-12-25 21:44:00,
2013-12-25 13:49:00,63.5,45.0,30.17,WNW,293,2.5,2.9,51,0.00,,,0.00,WUHU216HW,2013-12-25 21:49:00,
2013-12-25 13:54:00,63.7,45.2,30.17,WNW,293,3.4,3.4,51,0.00,,,0.00,WUHU216HW,2013-12-25 21:54:00,
2013-12-25 13:59:00,63.9,44.9,30.17,WSW,248,3.8,5.4,50,0.00,,,0.00,WUHU216HW,2013-12-25 21:59:00,
2013-12-25 14:04:00,64.3,44.7,30.16,WNW,293,4.5,5.4,49,0.00,,,0.00,WUHU216HW,2013-12-25 22:04:00,
2013-12-25 14:09:00,64.4,44.2,30.16,WSW,248,2.9,4.5,48,0.00,,,0.00,WUHU216HW,2013-12-25 22:09:00,
2013-12-25 14:14:00,64.4,45.4,30.17,West,270,4.7,4.7,50,0.00,,,0.00,WUHU216HW,2013-12-25 22:14:00,
2013-12-25 14:19:00,64.6,44.4,30.17,NW,315,4.3,5.1,48,0.00,,,0.00,WUHU216HW,2013-12-25 22:19:00,
2013-12-25 14:24:00,64.6,44.4,30.16,WNW,293,1.1,5.1,48,0.00,,,0.00,WUHU216HW,2013-12-25 22:24:00,
2013-12-25 14:29:00,64.8,44.6,30.17,West,270,2.9,4.7,48,0.00,,,0.00,WUHU216HW,2013-12-25 22:29:00,
2013-12-25 14:34:00,65.2,44.4,30.16,WSW,248,4.3,4.7,47,0.00,,,0.00,WUHU216HW,2013-12-25 22:34:00,
2013-12-25 14:39:00,65.2,43.7,30.17,West,270,2.5,4.7,46,0.00,,,0.00,WUHU216HW,2013-12-25 22:39:00,
2013-12-25 14:44:00,65.2,44.4,30.16,WNW,293,2.5,4.0,47,0.00,,,0.00,WUHU216HW,2013-12-25 22:44:00,
2013-12-25 14:49:00,65.2,44.4,30.16,WNW,293,2.5,4.0,47,0.00,,,0.00,WUHU216HW,2013-12-25 22:49:00,
2013-12-25 14:54:00,65.2,43.7,30.16,NW,315,1.3,4.5,46,0.00,,,0.00,WUHU216HW,2013-12-25 22:54:00,
2013-12-25 14:59:00,65.3,44.5,30.17,WSW,248,1.1,4.5,47,0.00,,,0.00,WUHU216HW,2013-12-25 22:59:00,
2013-12-25 15:04:00,65.3,44.5,30.17,West,270,2.5,3.4,47,0.00,,,0.00,WUHU216HW,2013-12-25 23:04:00,
2013-12-25 15:09:00,65.5,44.1,30.17,WSW,248,2.0,3.4,46,0.00,,,0.00,WUHU216HW,2013-12-25 23:09:00,
2013-12-25 15:14:00,65.5,44.6,30.17,WSW,248,1.8,2.5,47,0.00,,,0.00,WUHU216HW,2013-12-25 23:14:00,
2013-12-25 15:19:00,65.5,44.6,30.16,West,270,1.3,2.5,47,0.00,,,0.00,WUHU216HW,2013-12-25 23:19:00,
2013-12-25 15:24:00,65.5,44.6,30.16,WNW,293,2.5,2.7,47,0.00,,,0.00,WUHU216HW,2013-12-25 23:24:00,
2013-12-25 15:29:00,65.3,43.9,30.16,NW,315,1.3,2.7,46,0.00,,,0.00,WUHU216HW,2013-12-25 23:29:00,
2013-12-25 15:34:00,65.2,44.4,30.16,WNW,293,1.1,1.8,47,0.00,,,0.00,WUHU216HW,2013-12-25 23:34:00,
2013-12-25 15:39:00,65.0,43.6,30.17,WNW,293,1.8,2.2,46,0.00,,,0.00,WUHU216HW,2013-12-25 23:39:00,
2013-12-25 15:44:00,65.0,43.6,30.17,WNW,293,2.5,3.6,46,0.00,,,0.00,WUHU216HW,2013-12-25 23:44:00,
2013-12-25 15:49:00,64.6,43.2,30.17,NW,315,1.1,3.8,46,0.00,,,0.00,WUHU216HW,2013-12-25 23:49:00,
2013-12-25 15:54:00,64.4,43.7,30.17,SW,225,2.0,3.8,47,0.00,,,0.00,WUHU216HW,2013-12-25 23:54:00,
2013-12-25 15:59:00,64.3,42.9,30.17,West,270,2.7,3.6,46,0.00,,,0.00,WUHU216HW,2013-12-25 23:59:00,
2013-12-25 16:04:00,63.7,43.0,30.17,West,270,1.6,2.9,47,0.00,,,0.00,WUHU216HW,2013-12-26 00:04:00,
2013-12-25 16:09:00,63.4,42.7,30.17,WSW,248,2.5,2.9,47,0.00,,,0.00,WUHU216HW,2013-12-26 00:09:00,
2013-12-25 16:14:00,63.0,42.9,30.18,West,270,0.7,2.7,48,0.00,,,0.00,WUHU216HW,2013-12-26 00:14:00,
2013-12-25 16:19:00,62.6,42.6,30.18,West,270,1.8,2.5,48,0.00,,,0.00,WUHU216HW,2013-12-26 00:19:00,
2013-12-25 16:24:00,61.9,42.5,30.18,West,270,1.3,2.5,49,0.00,,,0.00,WUHU216HW,2013-12-26 00:24:00,
2013-12-25 16:29:00,61.6,42.2,30.18,West,270,0.0,2.2,49,0.00,,,0.00,WUHU216HW,2013-12-26 00:29:00,
2013-12-25 16:34:00,61.0,42.3,30.18,WNW,293,0.0,1.1,50,0.00,,,0.00,WUHU216HW,2013-12-26 00:34:00,
2013-12-25 16:39:00,60.5,42.3,30.18,WNW,293,0.0,0.2,51,0.00,,,0.00,WUHU216HW,2013-12-26 00:39:00,
2013-12-25 16:44:00,60.1,42.4,30.18,SSW,203,0.4,0.4,52,0.00,,,0.00,WUHU216HW,2013-12-26 00:44:00,
2013-12-25 16:49:00,59.4,41.8,30.18,South,180,0.2,0.4,52,0.00,,,0.00,WUHU216HW,2013-12-26 00:49:00,
2013-12-25 16:54:00,58.7,41.6,30.18,South,180,0.0,0.4,53,0.00,,,0.00,WUHU216HW,2013-12-26 00:54:00,
2013-12-25 16:59:00,58.1,41.6,30.18,SE,135,0.0,0.4,54,0.00,,,0.00,WUHU216HW,2013-12-26 00:59:00,
2013-12-25 17:04:00,57.4,41.0,30.18,East,90,0.4,0.4,54,0.00,,,0.00,WUHU216HW,2013-12-26 01:04:00,
2013-12-25 17:09:00,56.9,40.9,30.19,East,90,0.4,0.4,55,0.00,,,0.00,WUHU216HW,2013-12-26 01:09:00,
2013-12-25 17:14:00,56.3,40.8,30.18,East,90,0.4,0.4,56,0.00,,,0.00,WUHU216HW,2013-12-26 01:14:00,
2013-12-25 17:19:00,55.8,40.7,30.18,East,90,0.2,0.4,57,0.00,,,0.00,WUHU216HW,2013-12-26 01:19:00,
2013-12-25 17:24:00,55.1,40.1,30.18,East,90,0.0,0.9,57,0.00,,,0.00,WUHU216HW,2013-12-26 01:24:00,
2013-12-25 17:29:00,54.7,40.1,30.18,East,90,0.4,0.9,58,0.00,,,0.00,WUHU216HW,2013-12-26 01:29:00,
2013-12-25 17:34:00,54.2,39.7,30.18,ENE,68,0.0,0.4,58,0.00,,,0.00,WUHU216HW,2013-12-26 01:34:00,
2013-12-25 17:39:00,53.6,39.3,30.18,ENE,68,0.0,0.4,58,0.00,,,0.00,WUHU216HW,2013-12-26 01:39:00,
2013-12-25 17:44:00,53.1,39.2,30.18,ENE,68,0.0,0.0,59,0.00,,,0.00,WUHU216HW,2013-12-26 01:44:00,
2013-12-25 17:49:00,52.6,39.1,30.18,East,90,0.0,0.7,60,0.00,,,0.00,WUHU216HW,2013-12-26 01:49:00,
2013-12-25 17:54:00,52.0,38.5,30.18,ENE,68,0.2,0.7,60,0.00,,,0.00,WUHU216HW,2013-12-26 01:54:00,
2013-12-25 17:59:00,51.5,38.4,30.18,ENE,68,0.0,0.4,61,0.00,,,0.00,WUHU216HW,2013-12-26 01:59:00,
2013-12-25 18:04:00,51.1,38.1,30.18,ENE,68,0.0,0.4,61,0.00,,,0.00,WUHU216HW,2013-12-26 02:04:00,
2013-12-25 18:09:00,50.6,38.0,30.19,NE,45,0.0,0.0,62,0.00,,,0.00,WUHU216HW,2013-12-26 02:09:00,
2013-12-25 18:14:00,50.0,37.9,30.19,NE,45,0.0,0.0,63,0.00,,,0.00,WUHU216HW,2013-12-26 02:14:00,
2013-12-25 18:19:00,49.7,37.5,30.19,NE,45,0.0,0.0,63,0.00,,,0.00,WUHU216HW,2013-12-26 02:19:00,
2013-12-25 18:24:00,49.3,37.6,30.20,NE,45,0.0,0.0,64,0.00,,,0.00,WUHU216HW,2013-12-26 02:24:00,
2013-12-25 18:29:00,49.0,37.3,30.20,NE,45,0.0,0.0,64,0.00,,,0.00,WUHU216HW,2013-12-26 02:29:00,
2013-12-25 18:34:00,48.6,37.0,30.19,NE,45,0.0,0.0,64,0.00,,,0.00,WUHU216HW,2013-12-26 02:34:00,
2013-12-25 18:39:00,48.1,36.8,30.19,ENE,68,0.0,0.2,65,0.00,,,0.00,WUHU216HW,2013-12-26 02:39:00,
2013-12-25 18:44:00,47.9,36.6,30.19,ENE,68,0.0,0.2,65,0.00,,,0.00,WUHU216HW,2013-12-26 02:44:00,
2013-12-25 18:49:00,47.3,36.2,30.19,ENE,68,0.0,0.0,65,0.00,,,0.00,WUHU216HW,2013-12-26 02:49:00,
2013-12-25 18:54:00,47.0,36.2,30.19,ENE,68,0.0,0.2,66,0.00,,,0.00,WUHU216HW,2013-12-26 02:54:00,
2013-12-25 18:59:00,46.6,35.8,30.19,NE,45,0.0,0.2,66,0.00,,,0.00,WUHU216HW,2013-12-26 02:59:00,
2013-12-25 19:04:00,46.3,35.5,30.20,NE,45,0.0,0.0,66,0.00,,,0.00,WUHU216HW,2013-12-26 03:04:00,
2013-12-25 19:09:00,45.9,35.6,30.20,NNE,23,0.0,0.0,67,0.00,,,0.00,WUHU216HW,2013-12-26 03:09:00,
2013-12-25 19:14:00,45.5,35.6,30.21,NE,45,0.0,0.2,68,0.00,,,0.00,WUHU216HW,2013-12-26 03:14:00,
2013-12-25 19:19:00,45.2,35.2,30.21,NE,45,0.0,0.2,68,0.00,,,0.00,WUHU216HW,2013-12-26 03:19:00,
2013-12-25 19:24:00,45.0,35.1,30.21,NE,45,0.0,0.0,68,0.00,,,0.00,WUHU216HW,2013-12-26 03:24:00,
2013-12-25 19:29:00,44.6,35.1,30.21,NE,45,0.0,0.0,69,0.00,,,0.00,WUHU216HW,2013-12-26 03:29:00,
2013-12-25 19:34:00,44.5,34.9,30.21,NE,45,0.0,0.0,69,0.00,,,0.00,WUHU216HW,2013-12-26 03:34:00,
2013-12-25 19:39:00,44.1,34.6,30.21,NNE,23,0.4,0.4,69,0.00,,,0.00,WUHU216HW,2013-12-26 03:39:00,
2013-12-25 19:44:00,43.9,34.8,30.21,ENE,68,0.4,0.4,70,0.00,,,0.00,WUHU216HW,2013-12-26 03:44:00,
2013-12-25 19:49:00,43.6,34.8,30.21,NE,45,0.0,0.4,71,0.00,,,0.00,WUHU216HW,2013-12-26 03:49:00,
2013-12-25 19:54:00,43.6,34.5,30.21,NE,45,0.0,0.2,70,0.00,,,0.00,WUHU216HW,2013-12-26 03:54:00,
2013-12-25 19:59:00,43.2,34.5,30.21,NE,45,0.0,0.2,71,0.00,,,0.00,WUHU216HW,2013-12-26 03:59:00,
2013-12-25 20:04:00,43.0,34.3,30.21,ENE,68,0.2,0.4,71,0.00,,,0.00,WUHU216HW,2013-12-26 04:04:00,
2013-12-25 20:09:00,42.8,34.2,30.21,ENE,68,0.0,0.4,71,0.00,,,0.00,WUHU216HW,2013-12-26 04:09:00,
2013-12-25 20:14:00,42.7,34.0,30.21,ENE,68,0.0,0.0,71,0.00,,,0.00,WUHU216HW,2013-12-26 04:14:00,
2013-12-25 20:19:00,42.3,33.9,30.21,ENE,68,0.0,0.0,72,0.00,,,0.00,WUHU216HW,2013-12-26 04:19:00,
2013-12-25 20:24:00,42.1,33.8,30.21,ENE,68,0.0,0.0,72,0.00,,,0.00,WUHU216HW,2013-12-26 04:24:00,
2013-12-25 20:29:00,41.9,33.6,30.21,ENE,68,0.2,0.2,72,0.00,,,0.00,WUHU216HW,2013-12-26 04:29:00,
2013-12-25 20:34:00,41.8,34.0,30.21,East,90,0.0,0.2,74,0.00,,,0.00,WUHU216HW,2013-12-26 04:34:00,
2013-12-25 20:39:00,41.4,33.7,30.21,East,90,0.0,0.2,74,0.00,,,0.00,WUHU216HW,2013-12-26 04:39:00,
2013-12-25 20:44:00,41.2,33.5,30.21,ENE,68,0.0,0.0,74,0.00,,,0.00,WUHU216HW,2013-12-26 04:44:00,
2013-12-25 20:49:00,41.0,33.3,30.21,NE,45,0.0,0.0,74,0.00,,,0.00,WUHU216HW,2013-12-26 04:49:00,
2013-12-25 20:54:00,40.9,33.1,30.21,NE,45,0.0,0.0,74,0.00,,,0.00,WUHU216HW,2013-12-26 04:54:00,
2013-12-25 20:59:00,40.7,33.0,30.21,NE,45,0.0,0.0,74,0.00,,,0.00,WUHU216HW,2013-12-26 04:59:00,
2013-12-25 21:01:00,40.7,33.0,30.21,NE,45,0.0,0.0,74,0.00,,,0.00,WUHU216HW,2013-12-26 05:01:00,
2013-12-25 21:02:00,40.7,33.0,30.22,NE,45,0.0,0.0,74,0.00,,,0.00,WUHU216HW,2013-12-26 05:02:00,
2013-12-25 21:07:00,40.5,33.1,30.22,NE,45,0.0,0.0,75,0.00,,,0.00,WUHU216HW,2013-12-26 05:07:00,
2013-12-25 21:12:00,40.3,32.9,30.22,NE,45,0.0,0.0,75,0.00,,,0.00,WUHU216HW,2013-12-26 05:12:00,
2013-12-25 21:17:00,40.3,32.9,30.22,NE,45,0.0,0.0,75,0.00,,,0.00,WUHU216HW,2013-12-26 05:17:00,
2013-12-25 21:22:00,40.0,32.9,30.22,NE,45,0.0,0.0,76,0.00,,,0.00,WUHU216HW,2013-12-26 05:22:00,
2013-12-25 21:27:00,40.0,32.9,30.22,ENE,68,0.0,0.4,76,0.00,,,0.00,WUHU216HW,2013-12-26 05:27:00,
2013-12-25 21:32:00,40.0,33.3,30.22,NE,45,0.0,0.4,77,0.00,,,0.00,WUHU216HW,2013-12-26 05:32:00,
2013-12-25 21:37:00,40.0,33.3,30.21,NNE,23,0.0,0.0,77,0.00,,,0.00,WUHU216HW,2013-12-26 05:37:00,
2013-12-25 21:42:00,39.8,33.1,30.21,NNE,23,0.2,0.4,77,0.00,,,0.00,WUHU216HW,2013-12-26 05:42:00,
2013-12-25 21:47:00,39.6,32.9,30.21,NE,45,0.2,0.4,77,0.00,,,0.00,WUHU216HW,2013-12-26 05:47:00,
2013-12-25 21:52:00,39.4,32.8,30.21,NE,45,0.0,0.4,77,0.00,,,0.00,WUHU216HW,2013-12-26 05:52:00,
2013-12-25 21:57:00,39.2,32.7,30.21,NE,45,0.0,0.0,77,0.00,,,0.00,WUHU216HW,2013-12-26 05:57:00,
2013-12-25 22:02:00,39.2,32.7,30.22,ENE,68,0.0,0.2,77,0.00,,,0.00,WUHU216HW,2013-12-26 06:02:00,
2013-12-25 22:07:00,38.9,32.3,30.21,ENE,68,0.0,0.2,77,0.00,,,0.00,WUHU216HW,2013-12-26 06:07:00,
2013-12-25 22:12:00,38.7,32.5,30.21,ENE,68,0.0,0.0,78,0.00,,,0.00,WUHU216HW,2013-12-26 06:12:00,
2013-12-25 22:17:00,38.5,32.3,30.22,ENE,68,0.0,0.0,78,0.00,,,0.00,WUHU216HW,2013-12-26 06:17:00,
2013-12-25 22:22:00,38.5,32.3,30.22,East,90,0.0,0.0,78,0.00,,,0.00,WUHU216HW,2013-12-26 06:22:00,
2013-12-25 22:27:00,38.3,31.8,30.22,East,90,0.0,0.0,77,0.00,,,0.00,WUHU216HW,2013-12-26 06:27:00,
2013-12-25 22:32:00,38.2,32.0,30.22,NE,45,0.4,0.4,78,0.00,,,0.00,WUHU216HW,2013-12-26 06:32:00,
2013-12-25 22:37:00,38.2,32.0,30.22,NE,45,0.0,0.4,78,0.00,,,0.00,WUHU216HW,2013-12-26 06:37:00,
2013-12-25 22:42:00,38.0,31.8,30.22,NE,45,0.0,0.4,78,0.00,,,0.00,WUHU216HW,2013-12-26 06:42:00,
2013-12-25 22:47:00,37.8,31.6,30.22,NE,45,0.0,0.0,78,0.00,,,0.00,WUHU216HW,2013-12-26 06:47:00,
2013-12-25 22:52:00,37.8,31.6,30.23,NE,45,0.0,0.0,78,0.00,,,0.00,WUHU216HW,2013-12-26 06:52:00,
2013-12-25 22:57:00,37.6,31.4,30.22,NE,45,0.0,0.0,78,0.00,,,0.00,WUHU216HW,2013-12-26 06:57:00,
2013-12-25 23:02:00,37.4,31.2,30.22,NE,45,0.0,0.0,78,0.00,,,0.00,WUHU216HW,2013-12-26 07:02:00,
2013-12-25 23:07:00,37.4,31.5,30.22,NE,45,0.0,0.2,79,0.00,,,0.00,WUHU216HW,2013-12-26 07:07:00,
2013-12-25 23:12:00,37.3,31.3,30.22,NE,45,0.2,0.2,79,0.00,,,0.00,WUHU216HW,2013-12-26 07:12:00,
2013-12-25 23:17:00,37.1,31.1,30.22,NE,45,0.0,0.2,79,0.00,,,0.00,WUHU216HW,2013-12-26 07:17:00,
2013-12-25 23:22:00,37.1,31.5,30.22,NE,45,0.0,0.0,80,0.00,,,0.00,WUHU216HW,2013-12-26 07:22:00,
2013-12-25 23:27:00,36.9,31.3,30.22,NE,45,0.2,0.2,80,0.00,,,0.00,WUHU216HW,2013-12-26 07:27:00,
2013-12-25 23:32:00,36.7,31.1,30.21,NE,45,0.0,0.2,80,0.00,,,0.00,WUHU216HW,2013-12-26 07:32:00,
2013-12-25 23:37:00,36.7,31.1,30.21,ENE,68,0.0,0.0,80,0.00,,,0.00,WUHU216HW,2013-12-26 07:37:00,
2013-12-25 23:42:00,36.5,31.0,30.21,NE,45,0.0,0.2,80,0.00,,,0.00,WUHU216HW,2013-12-26 07:42:00,
2013-12-25 23:47:00,36.5,31.0,30.21,NE,45,0.0,0.2,80,0.00,,,0.00,WUHU216HW,2013-12-26 07:47:00,
2013-12-25 23:52:00,36.4,30.8,30.21,NE,45,0.0,0.0,80,0.00,,,0.00,WUHU216HW,2013-12-26 07:52:00,
2013-12-25 23:57:00,36.4,30.8,30.21,NE,45,0.0,0.0,80,0.00,,,0.00,WUHU216HW,2013-12-26 07:57:00,